sensor_id;sensor_type;location;lat;lon;timestamp;P1;durP1;ratioP1;P2;durP2;ratioP2
78148;SDS011;67396;42.664;23.382;2023-05-07T00:01:11;5.30;;;4.10;;
78148;SDS011;67396;42.664;23.382;2023-05-07T00:03:36;5.90;;;4.60;;
78148;SDS011;67396;42.664;23.382;2023-05-07T00:06:03;7.43;;;4.78;;
78148;SDS011;67396;42.664;23.382;2023-05-07T00:08:28;7.97;;;4.65;;
78148;SDS011;67396;42.664;23.382;2023-05-07T00:10:54;11.23;;;4.90;;
78148;SDS011;67396;42.664;23.382;2023-05-07T00:13:19;9.35;;;5.93;;
78148;SDS011;67396;42.664;23.382;2023-05-07T00:15:44;11.52;;;6.63;;
78148;SDS011;67396;42.664;23.382;2023-05-07T00:18:10;12.48;;;6.90;;
78148;SDS011;67396;42.664;23.382;2023-05-07T00:20:35;17.15;;;6.68;;
78148;SDS011;67396;42.664;23.382;2023-05-07T00:23:01;9.65;;;6.97;;
78148;SDS011;67396;42.664;23.382;2023-05-07T00:25:26;12.45;;;7.32;;
78148;SDS011;67396;42.664;23.382;2023-05-07T00:27:52;12.50;;;7.65;;
78148;SDS011;67396;42.664;23.382;2023-05-07T00:30:17;12.13;;;7.22;;
78148;SDS011;67396;42.664;23.382;2023-05-07T00:32:43;12.77;;;7.35;;
78148;SDS011;67396;42.664;23.382;2023-05-07T00:35:10;13.60;;;6.95;;
78148;SDS011;67396;42.664;23.382;2023-05-07T00:37:36;11.55;;;7.30;;
78148;SDS011;67396;42.664;23.382;2023-05-07T00:40:01;13.63;;;8.07;;
78148;SDS011;67396;42.664;23.382;2023-05-07T00:42:29;12.25;;;7.28;;
78148;SDS011;67396;42.664;23.382;2023-05-07T00:44:57;11.57;;;5.15;;
78148;SDS011;67396;42.664;23.382;2023-05-07T00:47:23;13.85;;;4.72;;
78148;SDS011;67396;42.664;23.382;2023-05-07T00:49:50;8.13;;;4.95;;
78148;SDS011;67396;42.664;23.382;2023-05-07T00:52:16;8.90;;;5.43;;
78148;SDS011;67396;42.664;23.382;2023-05-07T00:54:44;8.68;;;5.95;;
78148;SDS011;67396;42.664;23.382;2023-05-07T00:57:10;9.90;;;6.47;;
78148;SDS011;67396;42.664;23.382;2023-05-07T00:59:36;9.27;;;5.95;;
78148;SDS011;67396;42.664;23.382;2023-05-07T01:02:02;11.20;;;5.15;;
78148;SDS011;67396;42.664;23.382;2023-05-07T01:04:27;12.55;;;4.80;;
78148;SDS011;67396;42.664;23.382;2023-05-07T01:06:53;8.40;;;5.00;;
78148;SDS011;67396;42.664;23.382;2023-05-07T01:09:21;9.48;;;4.88;;
78148;SDS011;67396;42.664;23.382;2023-05-07T01:11:49;8.13;;;5.18;;
78148;SDS011;67396;42.664;23.382;2023-05-07T01:14:15;10.27;;;5.75;;
78148;SDS011;67396;42.664;23.382;2023-05-07T01:16:41;9.80;;;5.95;;
78148;SDS011;67396;42.664;23.382;2023-05-07T01:19:11;11.70;;;6.57;;
78148;SDS011;67396;42.664;23.382;2023-05-07T01:21:38;11.73;;;6.32;;
78148;SDS011;67396;42.664;23.382;2023-05-07T01:24:10;13.98;;;6.53;;
78148;SDS011;67396;42.664;23.382;2023-05-07T01:26:36;10.07;;;5.40;;
78148;SDS011;67396;42.664;23.382;2023-05-07T01:29:02;6.60;;;4.78;;
78148;SDS011;67396;42.664;23.382;2023-05-07T01:31:28;10.50;;;5.65;;
78148;SDS011;67396;42.664;23.382;2023-05-07T01:33:54;13.00;;;6.03;;
78148;SDS011;67396;42.664;23.382;2023-05-07T01:36:22;12.00;;;5.38;;
78148;SDS011;67396;42.664;23.382;2023-05-07T01:38:50;8.23;;;5.35;;
78148;SDS011;67396;42.664;23.382;2023-05-07T01:41:17;10.57;;;5.88;;
78148;SDS011;67396;42.664;23.382;2023-05-07T01:43:44;8.32;;;5.28;;
78148;SDS011;67396;42.664;23.382;2023-05-07T01:46:11;11.25;;;6.82;;
78148;SDS011;67396;42.664;23.382;2023-05-07T01:48:38;9.32;;;5.97;;
78148;SDS011;67396;42.664;23.382;2023-05-07T01:51:04;9.48;;;5.82;;
78148;SDS011;67396;42.664;23.382;2023-05-07T01:53:35;8.65;;;5.65;;
78148;SDS011;67396;42.664;23.382;2023-05-07T01:56:04;9.90;;;6.82;;
78148;SDS011;67396;42.664;23.382;2023-05-07T01:58:30;11.60;;;6.38;;
78148;SDS011;67396;42.664;23.382;2023-05-07T02:00:56;12.73;;;7.40;;
78148;SDS011;67396;42.664;23.382;2023-05-07T02:03:21;10.63;;;6.95;;
78148;SDS011;67396;42.664;23.382;2023-05-07T02:05:46;8.98;;;6.95;;
78148;SDS011;67396;42.664;23.382;2023-05-07T02:08:12;16.65;;;6.03;;
78148;SDS011;67396;42.664;23.382;2023-05-07T02:10:37;13.77;;;8.02;;
78148;SDS011;67396;42.664;23.382;2023-05-07T02:13:02;10.98;;;7.13;;
78148;SDS011;67396;42.664;23.382;2023-05-07T02:15:28;13.82;;;7.38;;
78148;SDS011;67396;42.664;23.382;2023-05-07T02:20:26;14.10;;;7.88;;
78148;SDS011;67396;42.664;23.382;2023-05-07T02:22:51;15.80;;;7.45;;
78148;SDS011;67396;42.664;23.382;2023-05-07T02:25:17;20.95;;;8.13;;
78148;SDS011;67396;42.664;23.382;2023-05-07T02:27:42;11.65;;;8.23;;
78148;SDS011;67396;42.664;23.382;2023-05-07T02:30:07;13.55;;;8.43;;
78148;SDS011;67396;42.664;23.382;2023-05-07T02:32:33;15.05;;;8.77;;
78148;SDS011;67396;42.664;23.382;2023-05-07T02:34:58;13.35;;;8.10;;
78148;SDS011;67396;42.664;23.382;2023-05-07T02:37:24;16.75;;;8.38;;
78148;SDS011;67396;42.664;23.382;2023-05-07T02:39:50;12.30;;;8.30;;
78148;SDS011;67396;42.664;23.382;2023-05-07T02:42:15;12.82;;;8.13;;
78148;SDS011;67396;42.664;23.382;2023-05-07T02:44:40;11.82;;;8.30;;
78148;SDS011;67396;42.664;23.382;2023-05-07T02:47:06;17.52;;;10.02;;
78148;SDS011;67396;42.664;23.382;2023-05-07T02:49:33;14.07;;;8.75;;
78148;SDS011;67396;42.664;23.382;2023-05-07T02:51:59;15.95;;;9.43;;
78148;SDS011;67396;42.664;23.382;2023-05-07T02:54:24;14.05;;;9.10;;
78148;SDS011;67396;42.664;23.382;2023-05-07T02:56:50;14.25;;;8.52;;
78148;SDS011;67396;42.664;23.382;2023-05-07T02:59:15;19.13;;;9.65;;
78148;SDS011;67396;42.664;23.382;2023-05-07T03:01:41;15.02;;;10.02;;
78148;SDS011;67396;42.664;23.382;2023-05-07T03:04:08;21.27;;;10.15;;
78148;SDS011;67396;42.664;23.382;2023-05-07T03:06:34;19.42;;;10.90;;
78148;SDS011;67396;42.664;23.382;2023-05-07T03:09:00;18.23;;;9.50;;
78148;SDS011;67396;42.664;23.382;2023-05-07T03:11:25;13.57;;;8.82;;
78148;SDS011;67396;42.664;23.382;2023-05-07T03:13:50;15.80;;;9.43;;
78148;SDS011;67396;42.664;23.382;2023-05-07T03:16:16;18.98;;;10.68;;
78148;SDS011;67396;42.664;23.382;2023-05-07T03:18:41;16.33;;;9.88;;
78148;SDS011;67396;42.664;23.382;2023-05-07T03:21:07;13.35;;;8.38;;
78148;SDS011;67396;42.664;23.382;2023-05-07T03:23:32;15.32;;;10.43;;
78148;SDS011;67396;42.664;23.382;2023-05-07T03:25:57;15.88;;;10.15;;
78148;SDS011;67396;42.664;23.382;2023-05-07T03:28:23;20.52;;;10.68;;
78148;SDS011;67396;42.664;23.382;2023-05-07T03:30:48;22.58;;;10.55;;
78148;SDS011;67396;42.664;23.382;2023-05-07T03:33:14;15.95;;;9.63;;
78148;SDS011;67396;42.664;23.382;2023-05-07T03:35:39;23.75;;;14.20;;
78148;SDS011;67396;42.664;23.382;2023-05-07T03:38:05;18.75;;;11.23;;
78148;SDS011;67396;42.664;23.382;2023-05-07T03:40:30;15.15;;;9.40;;
78148;SDS011;67396;42.664;23.382;2023-05-07T03:42:55;15.65;;;9.48;;
78148;SDS011;67396;42.664;23.382;2023-05-07T03:45:21;16.55;;;9.50;;
78148;SDS011;67396;42.664;23.382;2023-05-07T03:47:47;22.65;;;10.55;;
78148;SDS011;67396;42.664;23.382;2023-05-07T03:50:12;20.17;;;10.07;;
78148;SDS011;67396;42.664;23.382;2023-05-07T03:52:37;46.13;;;13.68;;
78148;SDS011;67396;42.664;23.382;2023-05-07T03:55:03;33.17;;;12.10;;
78148;SDS011;67396;42.664;23.382;2023-05-07T03:57:29;26.33;;;11.55;;
78148;SDS011;67396;42.664;23.382;2023-05-07T03:59:54;25.92;;;11.75;;
78148;SDS011;67396;42.664;23.382;2023-05-07T04:02:20;18.10;;;11.50;;
78148;SDS011;67396;42.664;23.382;2023-05-07T04:04:45;20.15;;;10.95;;
78148;SDS011;67396;42.664;23.382;2023-05-07T04:07:10;19.80;;;11.55;;
78148;SDS011;67396;42.664;23.382;2023-05-07T04:09:36;19.02;;;12.05;;
78148;SDS011;67396;42.664;23.382;2023-05-07T04:12:01;20.48;;;12.02;;
78148;SDS011;67396;42.664;23.382;2023-05-07T04:14:27;21.25;;;12.00;;
78148;SDS011;67396;42.664;23.382;2023-05-07T04:16:52;18.48;;;11.30;;
78148;SDS011;67396;42.664;23.382;2023-05-07T04:19:18;21.88;;;13.07;;
78148;SDS011;67396;42.664;23.382;2023-05-07T04:21:43;20.55;;;12.05;;
78148;SDS011;67396;42.664;23.382;2023-05-07T04:24:08;22.83;;;13.13;;
78148;SDS011;67396;42.664;23.382;2023-05-07T04:26:34;20.40;;;12.57;;
78148;SDS011;67396;42.664;23.382;2023-05-07T04:28:59;19.13;;;12.13;;
78148;SDS011;67396;42.664;23.382;2023-05-07T04:31:25;21.48;;;12.77;;
78148;SDS011;67396;42.664;23.382;2023-05-07T04:33:51;22.00;;;12.90;;
78148;SDS011;67396;42.664;23.382;2023-05-07T04:36:16;19.38;;;11.13;;
78148;SDS011;67396;42.664;23.382;2023-05-07T04:38:42;17.88;;;10.50;;
78148;SDS011;67396;42.664;23.382;2023-05-07T04:41:08;18.88;;;11.77;;
78148;SDS011;67396;42.664;23.382;2023-05-07T04:43:34;17.08;;;10.60;;
78148;SDS011;67396;42.664;23.382;2023-05-07T04:46:00;21.60;;;11.95;;
78148;SDS011;67396;42.664;23.382;2023-05-07T04:48:25;20.20;;;10.38;;
78148;SDS011;67396;42.664;23.382;2023-05-07T04:50:51;17.48;;;10.98;;
78148;SDS011;67396;42.664;23.382;2023-05-07T04:53:17;18.73;;;11.50;;
78148;SDS011;67396;42.664;23.382;2023-05-07T04:55:43;18.38;;;10.75;;
78148;SDS011;67396;42.664;23.382;2023-05-07T04:58:10;19.88;;;11.15;;
78148;SDS011;67396;42.664;23.382;2023-05-07T05:00:35;18.17;;;10.48;;
78148;SDS011;67396;42.664;23.382;2023-05-07T05:03:00;15.32;;;9.68;;
78148;SDS011;67396;42.664;23.382;2023-05-07T05:05:26;15.50;;;10.20;;
78148;SDS011;67396;42.664;23.382;2023-05-07T05:07:51;23.08;;;11.88;;
78148;SDS011;67396;42.664;23.382;2023-05-07T05:10:17;20.23;;;11.05;;
78148;SDS011;67396;42.664;23.382;2023-05-07T05:12:43;18.77;;;10.98;;
78148;SDS011;67396;42.664;23.382;2023-05-07T05:15:10;21.55;;;11.43;;
78148;SDS011;67396;42.664;23.382;2023-05-07T05:17:37;19.33;;;10.75;;
78148;SDS011;67396;42.664;23.382;2023-05-07T05:20:03;16.85;;;11.45;;
78148;SDS011;67396;42.664;23.382;2023-05-07T05:22:29;18.75;;;11.35;;
78148;SDS011;67396;42.664;23.382;2023-05-07T05:24:56;18.73;;;11.68;;
78148;SDS011;67396;42.664;23.382;2023-05-07T05:27:21;18.77;;;11.30;;
78148;SDS011;67396;42.664;23.382;2023-05-07T05:29:47;18.05;;;11.02;;
78148;SDS011;67396;42.664;23.382;2023-05-07T05:32:12;17.63;;;10.15;;
78148;SDS011;67396;42.664;23.382;2023-05-07T05:34:37;16.98;;;10.57;;
78148;SDS011;67396;42.664;23.382;2023-05-07T05:37:03;16.85;;;9.95;;
78148;SDS011;67396;42.664;23.382;2023-05-07T05:39:29;15.80;;;9.75;;
78148;SDS011;67396;42.664;23.382;2023-05-07T05:41:54;16.88;;;9.65;;
78148;SDS011;67396;42.664;23.382;2023-05-07T05:44:19;22.75;;;10.38;;
78148;SDS011;67396;42.664;23.382;2023-05-07T05:46:45;21.00;;;10.98;;
78148;SDS011;67396;42.664;23.382;2023-05-07T05:49:11;15.65;;;10.25;;
78148;SDS011;67396;42.664;23.382;2023-05-07T05:51:36;15.85;;;9.02;;
78148;SDS011;67396;42.664;23.382;2023-05-07T05:54:01;15.90;;;9.50;;
78148;SDS011;67396;42.664;23.382;2023-05-07T05:56:27;15.80;;;10.43;;
78148;SDS011;67396;42.664;23.382;2023-05-07T05:58:52;15.05;;;10.35;;
78148;SDS011;67396;42.664;23.382;2023-05-07T06:01:18;17.50;;;11.05;;
78148;SDS011;67396;42.664;23.382;2023-05-07T06:03:44;18.08;;;9.90;;
78148;SDS011;67396;42.664;23.382;2023-05-07T06:06:09;15.65;;;9.68;;
78148;SDS011;67396;42.664;23.382;2023-05-07T06:08:35;20.33;;;12.07;;
78148;SDS011;67396;42.664;23.382;2023-05-07T06:11:02;17.00;;;10.98;;
78148;SDS011;67396;42.664;23.382;2023-05-07T06:13:28;18.38;;;10.85;;
78148;SDS011;67396;42.664;23.382;2023-05-07T06:15:53;20.73;;;10.98;;
78148;SDS011;67396;42.664;23.382;2023-05-07T06:18:18;18.13;;;11.23;;
78148;SDS011;67396;42.664;23.382;2023-05-07T06:20:44;19.77;;;11.05;;
78148;SDS011;67396;42.664;23.382;2023-05-07T06:23:09;20.00;;;11.05;;
78148;SDS011;67396;42.664;23.382;2023-05-07T06:25:35;16.23;;;10.35;;
78148;SDS011;67396;42.664;23.382;2023-05-07T06:28:00;16.00;;;9.77;;
78148;SDS011;67396;42.664;23.382;2023-05-07T06:30:33;22.17;;;10.55;;
78148;SDS011;67396;42.664;23.382;2023-05-07T06:33:02;16.70;;;9.90;;
78148;SDS011;67396;42.664;23.382;2023-05-07T06:35:31;16.30;;;9.65;;
78148;SDS011;67396;42.664;23.382;2023-05-07T06:37:56;16.38;;;10.70;;
78148;SDS011;67396;42.664;23.382;2023-05-07T06:40:25;14.63;;;9.68;;
78148;SDS011;67396;42.664;23.382;2023-05-07T06:42:58;13.85;;;9.05;;
78148;SDS011;67396;42.664;23.382;2023-05-07T06:45:29;19.50;;;9.45;;
78148;SDS011;67396;42.664;23.382;2023-05-07T06:48:00;16.90;;;9.52;;
78148;SDS011;67396;42.664;23.382;2023-05-07T06:50:28;16.42;;;9.73;;
78148;SDS011;67396;42.664;23.382;2023-05-07T06:52:54;15.32;;;9.52;;
78148;SDS011;67396;42.664;23.382;2023-05-07T06:55:22;15.60;;;8.23;;
78148;SDS011;67396;42.664;23.382;2023-05-07T06:57:51;14.05;;;8.80;;
78148;SDS011;67396;42.664;23.382;2023-05-07T07:00:43;14.88;;;10.48;;
78148;SDS011;67396;42.664;23.382;2023-05-07T07:03:17;16.08;;;10.13;;
78148;SDS011;67396;42.664;23.382;2023-05-07T07:05:46;15.65;;;9.77;;
78148;SDS011;67396;42.664;23.382;2023-05-07T07:08:13;18.75;;;11.27;;
78148;SDS011;67396;42.664;23.382;2023-05-07T07:10:51;14.13;;;9.63;;
78148;SDS011;67396;42.664;23.382;2023-05-07T07:13:17;14.88;;;8.57;;
78148;SDS011;67396;42.664;23.382;2023-05-07T07:15:46;13.30;;;8.55;;
78148;SDS011;67396;42.664;23.382;2023-05-07T07:18:14;16.55;;;9.48;;
78148;SDS011;67396;42.664;23.382;2023-05-07T07:20:42;16.85;;;9.77;;
78148;SDS011;67396;42.664;23.382;2023-05-07T07:23:11;17.55;;;9.82;;
78148;SDS011;67396;42.664;23.382;2023-05-07T07:25:36;13.30;;;8.20;;
78148;SDS011;67396;42.664;23.382;2023-05-07T07:28:02;17.45;;;9.32;;
78148;SDS011;67396;42.664;23.382;2023-05-07T07:30:28;13.20;;;8.85;;
78148;SDS011;67396;42.664;23.382;2023-05-07T07:32:58;14.57;;;9.75;;
78148;SDS011;67396;42.664;23.382;2023-05-07T07:35:28;16.05;;;9.40;;
78148;SDS011;67396;42.664;23.382;2023-05-07T07:37:56;15.70;;;8.88;;
78148;SDS011;67396;42.664;23.382;2023-05-07T07:40:22;18.70;;;10.63;;
78148;SDS011;67396;42.664;23.382;2023-05-07T07:42:50;15.32;;;9.02;;
78148;SDS011;67396;42.664;23.382;2023-05-07T07:45:18;16.55;;;9.40;;
78148;SDS011;67396;42.664;23.382;2023-05-07T07:47:44;14.32;;;9.15;;
78148;SDS011;67396;42.664;23.382;2023-05-07T07:50:10;13.10;;;8.98;;
78148;SDS011;67396;42.664;23.382;2023-05-07T07:52:36;16.23;;;9.45;;
78148;SDS011;67396;42.664;23.382;2023-05-07T07:55:02;17.63;;;9.30;;
78148;SDS011;67396;42.664;23.382;2023-05-07T07:57:28;14.02;;;9.88;;
78148;SDS011;67396;42.664;23.382;2023-05-07T07:59:53;14.77;;;9.45;;
78148;SDS011;67396;42.664;23.382;2023-05-07T08:02:20;18.52;;;9.73;;
78148;SDS011;67396;42.664;23.382;2023-05-07T08:04:45;20.65;;;11.30;;
78148;SDS011;67396;42.664;23.382;2023-05-07T08:07:14;18.23;;;10.43;;
78148;SDS011;67396;42.664;23.382;2023-05-07T08:09:39;22.63;;;10.93;;
78148;SDS011;67396;42.664;23.382;2023-05-07T08:12:08;19.35;;;11.02;;
78148;SDS011;67396;42.664;23.382;2023-05-07T08:14:34;17.70;;;10.38;;
78148;SDS011;67396;42.664;23.382;2023-05-07T08:17:03;18.92;;;9.98;;
78148;SDS011;67396;42.664;23.382;2023-05-07T08:19:28;17.00;;;10.40;;
78148;SDS011;67396;42.664;23.382;2023-05-07T08:21:57;20.88;;;10.52;;
78148;SDS011;67396;42.664;23.382;2023-05-07T08:24:22;16.67;;;10.15;;
78148;SDS011;67396;42.664;23.382;2023-05-07T08:26:47;15.57;;;9.63;;
78148;SDS011;67396;42.664;23.382;2023-05-07T08:29:13;16.75;;;9.77;;
78148;SDS011;67396;42.664;23.382;2023-05-07T08:31:38;15.32;;;9.10;;
78148;SDS011;67396;42.664;23.382;2023-05-07T08:34:04;13.95;;;8.18;;
78148;SDS011;67396;42.664;23.382;2023-05-07T08:36:30;16.17;;;9.25;;
78148;SDS011;67396;42.664;23.382;2023-05-07T08:38:56;19.95;;;10.38;;
78148;SDS011;67396;42.664;23.382;2023-05-07T08:41:21;19.45;;;10.10;;
78148;SDS011;67396;42.664;23.382;2023-05-07T08:43:47;15.77;;;10.07;;
78148;SDS011;67396;42.664;23.382;2023-05-07T08:46:21;19.25;;;11.38;;
78148;SDS011;67396;42.664;23.382;2023-05-07T08:48:48;16.10;;;8.88;;
78148;SDS011;67396;42.664;23.382;2023-05-07T08:51:18;15.05;;;8.75;;
78148;SDS011;67396;42.664;23.382;2023-05-07T08:53:46;11.98;;;8.13;;
78148;SDS011;67396;42.664;23.382;2023-05-07T08:56:13;14.68;;;7.70;;
78148;SDS011;67396;42.664;23.382;2023-05-07T08:58:43;10.52;;;6.80;;
78148;SDS011;67396;42.664;23.382;2023-05-07T09:01:12;11.65;;;6.68;;
78148;SDS011;67396;42.664;23.382;2023-05-07T09:03:39;9.68;;;7.10;;
78148;SDS011;67396;42.664;23.382;2023-05-07T09:06:05;15.02;;;6.80;;
78148;SDS011;67396;42.664;23.382;2023-05-07T09:08:32;9.98;;;7.07;;
78148;SDS011;67396;42.664;23.382;2023-05-07T09:10:59;10.73;;;6.85;;
78148;SDS011;67396;42.664;23.382;2023-05-07T09:13:25;10.07;;;6.30;;
78148;SDS011;67396;42.664;23.382;2023-05-07T09:15:52;11.05;;;7.10;;
78148;SDS011;67396;42.664;23.382;2023-05-07T09:18:21;11.13;;;5.65;;
78148;SDS011;67396;42.664;23.382;2023-05-07T09:20:57;13.18;;;6.45;;
78148;SDS011;67396;42.664;23.382;2023-05-07T09:23:27;8.57;;;5.30;;
78148;SDS011;67396;42.664;23.382;2023-05-07T09:25:53;9.80;;;5.68;;
78148;SDS011;67396;42.664;23.382;2023-05-07T09:28:28;8.27;;;5.80;;
78148;SDS011;67396;42.664;23.382;2023-05-07T09:30:53;11.02;;;5.53;;
78148;SDS011;67396;42.664;23.382;2023-05-07T09:33:21;8.70;;;5.22;;
78148;SDS011;67396;42.664;23.382;2023-05-07T09:35:46;11.07;;;5.75;;
78148;SDS011;67396;42.664;23.382;2023-05-07T09:38:16;8.18;;;5.30;;
78148;SDS011;67396;42.664;23.382;2023-05-07T09:40:45;8.15;;;5.32;;
78148;SDS011;67396;42.664;23.382;2023-05-07T09:43:11;8.02;;;5.75;;
78148;SDS011;67396;42.664;23.382;2023-05-07T09:45:37;8.02;;;5.53;;
78148;SDS011;67396;42.664;23.382;2023-05-07T09:48:04;10.35;;;5.30;;
78148;SDS011;67396;42.664;23.382;2023-05-07T09:50:39;10.50;;;5.78;;
78148;SDS011;67396;42.664;23.382;2023-05-07T09:53:12;11.82;;;6.22;;
78148;SDS011;67396;42.664;23.382;2023-05-07T09:55:57;9.52;;;5.82;;
78148;SDS011;67396;42.664;23.382;2023-05-07T09:58:23;10.63;;;5.45;;
78148;SDS011;67396;42.664;23.382;2023-05-07T10:00:51;9.85;;;5.68;;
78148;SDS011;67396;42.664;23.382;2023-05-07T10:03:17;8.60;;;5.70;;
78148;SDS011;67396;42.664;23.382;2023-05-07T10:05:44;32.50;;;8.68;;
78148;SDS011;67396;42.664;23.382;2023-05-07T10:08:17;10.48;;;5.10;;
78148;SDS011;67396;42.664;23.382;2023-05-07T10:10:44;11.35;;;5.25;;
78148;SDS011;67396;42.664;23.382;2023-05-07T10:13:11;14.75;;;5.03;;
78148;SDS011;67396;42.664;23.382;2023-05-07T10:15:39;12.20;;;5.95;;
78148;SDS011;67396;42.664;23.382;2023-05-07T10:18:06;9.48;;;5.88;;
78148;SDS011;67396;42.664;23.382;2023-05-07T10:20:33;9.65;;;4.65;;
78148;SDS011;67396;42.664;23.382;2023-05-07T10:23:01;6.18;;;4.35;;
78148;SDS011;67396;42.664;23.382;2023-05-07T10:25:29;11.07;;;5.80;;
78148;SDS011;67396;42.664;23.382;2023-05-07T10:27:57;8.90;;;4.85;;
78148;SDS011;67396;42.664;23.382;2023-05-07T10:30:26;8.68;;;4.75;;
78148;SDS011;67396;42.664;23.382;2023-05-07T10:32:59;8.90;;;4.30;;
78148;SDS011;67396;42.664;23.382;2023-05-07T10:35:31;6.70;;;4.60;;
78148;SDS011;67396;42.664;23.382;2023-05-07T10:38:05;6.32;;;5.03;;
78148;SDS011;67396;42.664;23.382;2023-05-07T10:40:31;6.32;;;4.28;;
78148;SDS011;67396;42.664;23.382;2023-05-07T10:42:59;5.13;;;4.28;;
78148;SDS011;67396;42.664;23.382;2023-05-07T10:45:25;6.55;;;4.07;;
78148;SDS011;67396;42.664;23.382;2023-05-07T10:50:36;8.05;;;4.30;;
78148;SDS011;67396;42.664;23.382;2023-05-07T10:53:21;7.45;;;4.25;;
78148;SDS011;67396;42.664;23.382;2023-05-07T10:55:50;7.03;;;4.45;;
78148;SDS011;67396;42.664;23.382;2023-05-07T10:58:26;7.28;;;4.60;;
78148;SDS011;67396;42.664;23.382;2023-05-07T11:00:59;7.43;;;4.90;;
78148;SDS011;67396;42.664;23.382;2023-05-07T11:03:26;8.43;;;4.95;;
78148;SDS011;67396;42.664;23.382;2023-05-07T11:06:11;7.32;;;4.57;;
78148;SDS011;67396;42.664;23.382;2023-05-07T11:08:53;7.50;;;5.90;;
78148;SDS011;67396;42.664;23.382;2023-05-07T11:11:18;7.28;;;4.28;;
78148;SDS011;67396;42.664;23.382;2023-05-07T11:13:46;10.77;;;4.65;;
78148;SDS011;67396;42.664;23.382;2023-05-07T11:16:20;8.02;;;4.85;;
78148;SDS011;67396;42.664;23.382;2023-05-07T11:18:52;7.38;;;4.30;;
78148;SDS011;67396;42.664;23.382;2023-05-07T11:24:06;7.97;;;5.00;;
78148;SDS011;67396;42.664;23.382;2023-05-07T11:26:54;8.77;;;5.38;;
78148;SDS011;67396;42.664;23.382;2023-05-07T11:29:20;6.38;;;4.93;;
78148;SDS011;67396;42.664;23.382;2023-05-07T11:31:49;8.98;;;5.63;;
78148;SDS011;67396;42.664;23.382;2023-05-07T11:34:22;9.52;;;4.70;;
78148;SDS011;67396;42.664;23.382;2023-05-07T11:36:51;6.95;;;4.97;;
78148;SDS011;67396;42.664;23.382;2023-05-07T11:39:50;8.02;;;5.10;;
78148;SDS011;67396;42.664;23.382;2023-05-07T11:42:24;9.43;;;5.28;;
78148;SDS011;67396;42.664;23.382;2023-05-07T11:44:53;8.07;;;4.93;;
78148;SDS011;67396;42.664;23.382;2023-05-07T11:47:19;7.75;;;4.93;;
78148;SDS011;67396;42.664;23.382;2023-05-07T11:49:48;8.88;;;5.25;;
78148;SDS011;67396;42.664;23.382;2023-05-07T11:52:15;7.15;;;4.90;;
78148;SDS011;67396;42.664;23.382;2023-05-07T11:54:48;6.75;;;4.93;;
78148;SDS011;67396;42.664;23.382;2023-05-07T11:57:18;8.40;;;4.90;;
78148;SDS011;67396;42.664;23.382;2023-05-07T11:59:43;6.45;;;5.15;;
78148;SDS011;67396;42.664;23.382;2023-05-07T12:02:16;12.38;;;5.63;;
78148;SDS011;67396;42.664;23.382;2023-05-07T12:04:42;5.85;;;5.00;;
78148;SDS011;67396;42.664;23.382;2023-05-07T12:07:15;13.10;;;5.57;;
78148;SDS011;67396;42.664;23.382;2023-05-07T12:09:40;5.47;;;4.45;;
78148;SDS011;67396;42.664;23.382;2023-05-07T12:12:07;8.35;;;5.15;;
78148;SDS011;67396;42.664;23.382;2023-05-07T12:14:32;8.35;;;5.07;;
78148;SDS011;67396;42.664;23.382;2023-05-07T12:17:04;8.65;;;5.18;;
78148;SDS011;67396;42.664;23.382;2023-05-07T12:19:30;10.88;;;6.93;;
78148;SDS011;67396;42.664;23.382;2023-05-07T12:21:57;18.17;;;10.50;;
78148;SDS011;67396;42.664;23.382;2023-05-07T12:24:23;15.77;;;10.23;;
78148;SDS011;67396;42.664;23.382;2023-05-07T12:26:48;11.25;;;7.05;;
78148;SDS011;67396;42.664;23.382;2023-05-07T12:29:14;9.32;;;6.25;;
78148;SDS011;67396;42.664;23.382;2023-05-07T12:31:40;8.07;;;5.63;;
78148;SDS011;67396;42.664;23.382;2023-05-07T12:34:06;8.57;;;5.60;;
78148;SDS011;67396;42.664;23.382;2023-05-07T12:36:39;9.65;;;5.93;;
78148;SDS011;67396;42.664;23.382;2023-05-07T12:39:08;10.27;;;5.47;;
78148;SDS011;67396;42.664;23.382;2023-05-07T12:44:21;7.25;;;5.18;;
78148;SDS011;67396;42.664;23.382;2023-05-07T12:46:49;8.45;;;5.15;;
78148;SDS011;67396;42.664;23.382;2023-05-07T12:49:15;8.20;;;5.75;;
78148;SDS011;67396;42.664;23.382;2023-05-07T12:51:40;8.88;;;6.40;;
78148;SDS011;67396;42.664;23.382;2023-05-07T12:54:05;9.25;;;5.35;;
78148;SDS011;67396;42.664;23.382;2023-05-07T12:56:31;25.42;;;8.40;;
78148;SDS011;67396;42.664;23.382;2023-05-07T12:58:57;8.45;;;4.80;;
78148;SDS011;67396;42.664;23.382;2023-05-07T13:01:28;7.93;;;5.57;;
78148;SDS011;67396;42.664;23.382;2023-05-07T13:03:54;9.05;;;4.20;;
78148;SDS011;67396;42.664;23.382;2023-05-07T13:06:20;6.72;;;3.70;;
78148;SDS011;67396;42.664;23.382;2023-05-07T13:08:45;6.82;;;3.85;;
78148;SDS011;67396;42.664;23.382;2023-05-07T13:11:11;5.18;;;3.65;;
78148;SDS011;67396;42.664;23.382;2023-05-07T13:13:39;5.57;;;3.88;;
78148;SDS011;67396;42.664;23.382;2023-05-07T13:16:06;7.20;;;3.70;;
78148;SDS011;67396;42.664;23.382;2023-05-07T13:18:33;5.63;;;3.60;;
78148;SDS011;67396;42.664;23.382;2023-05-07T13:20:59;5.60;;;4.00;;
78148;SDS011;67396;42.664;23.382;2023-05-07T13:23:26;7.60;;;4.50;;
78148;SDS011;67396;42.664;23.382;2023-05-07T13:25:52;7.53;;;4.13;;
78148;SDS011;67396;42.664;23.382;2023-05-07T13:28:19;6.75;;;4.82;;
78148;SDS011;67396;42.664;23.382;2023-05-07T13:30:45;8.10;;;4.32;;
78148;SDS011;67396;42.664;23.382;2023-05-07T13:33:11;5.28;;;3.60;;
78148;SDS011;67396;42.664;23.382;2023-05-07T13:35:37;8.15;;;3.95;;
78148;SDS011;67396;42.664;23.382;2023-05-07T13:38:02;5.75;;;3.75;;
78148;SDS011;67396;42.664;23.382;2023-05-07T13:40:28;4.20;;;3.25;;
78148;SDS011;67396;42.664;23.382;2023-05-07T13:42:53;5.38;;;3.65;;
78148;SDS011;67396;42.664;23.382;2023-05-07T13:45:19;7.80;;;3.78;;
78148;SDS011;67396;42.664;23.382;2023-05-07T13:47:45;9.68;;;4.68;;
78148;SDS011;67396;42.664;23.382;2023-05-07T13:50:11;12.55;;;5.65;;
78148;SDS011;67396;42.664;23.382;2023-05-07T13:52:40;5.53;;;3.75;;
78148;SDS011;67396;42.664;23.382;2023-05-07T13:55:08;5.90;;;4.28;;
78148;SDS011;67396;42.664;23.382;2023-05-07T13:57:34;8.52;;;4.03;;
78148;SDS011;67396;42.664;23.382;2023-05-07T14:00:00;10.52;;;5.03;;
78148;SDS011;67396;42.664;23.382;2023-05-07T14:02:25;7.40;;;4.82;;
78148;SDS011;67396;42.664;23.382;2023-05-07T14:04:51;9.68;;;4.85;;
78148;SDS011;67396;42.664;23.382;2023-05-07T14:07:16;9.23;;;6.38;;
78148;SDS011;67396;42.664;23.382;2023-05-07T14:09:41;6.43;;;4.22;;
78148;SDS011;67396;42.664;23.382;2023-05-07T14:12:10;9.48;;;4.78;;
78148;SDS011;67396;42.664;23.382;2023-05-07T14:14:35;6.30;;;3.83;;
78148;SDS011;67396;42.664;23.382;2023-05-07T14:17:01;7.22;;;3.67;;
78148;SDS011;67396;42.664;23.382;2023-05-07T14:19:26;5.22;;;3.38;;
78148;SDS011;67396;42.664;23.382;2023-05-07T14:21:52;4.60;;;3.40;;
78148;SDS011;67396;42.664;23.382;2023-05-07T14:24:17;6.00;;;4.03;;
78148;SDS011;67396;42.664;23.382;2023-05-07T14:26:42;9.43;;;4.25;;
78148;SDS011;67396;42.664;23.382;2023-05-07T14:29:08;7.07;;;3.75;;
78148;SDS011;67396;42.664;23.382;2023-05-07T14:31:33;6.63;;;3.88;;
78148;SDS011;67396;42.664;23.382;2023-05-07T14:33:59;6.40;;;4.63;;